Time;durP1;ratioP1;P1;durP2;ratioP2;P2;SDS_P1;SDS_P2;PMS_P1;PMS_P2;Temp;Humidity;BMP_temperature;BMP_pressure;BME280_temperature;BME280_humidity;BME280_pressure;Samples;Min_cycle;Max_cycle;Signal;HPM_P1;HPM_P2
2021/09/23 00:00:09;;;;;;;7.07;5.32;;;17.20;63.60;;;;;;5093568;28;20081;-79
2021/09/23 00:05:11;;;;;;;8.43;5.82;;;17.10;63.60;;;;;;5060351;28;20036;-79
2021/09/23 00:07:38;;;;;;;7.40;5.53;;;17.10;63.60;;;;;;5076024;28;20054;-78
2021/09/23 00:10:06;;;;;;;6.15;4.70;;;17.10;63.60;;;;;;5058911;28;20132;-81
2021/09/23 00:12:31;;;;;;;7.13;5.47;;;17.10;63.70;;;;;;5059707;28;20365;-79
2021/09/23 00:14:57;;;;;;;7.70;5.63;;;17.00;63.60;;;;;;5076499;28;20028;-79
2021/09/23 00:17:23;;;;;;;7.82;5.45;;;17.00;63.60;;;;;;5075386;28;20032;-79
2021/09/23 00:19:50;;;;;;;7.57;5.43;;;17.00;63.60;;;;;;5075553;28;20024;-79
2021/09/23 00:22:16;;;;;;;7.80;5.72;;;17.00;63.60;;;;;;5059316;28;20090;-79
2021/09/23 00:24:41;;;;;;;7.72;5.93;;;17.00;63.60;;;;;;5094454;28;20452;-79
2021/09/23 00:27:08;;;;;;;7.63;5.63;;;17.00;63.70;;;;;;5042358;28;20052;-80
2021/09/23 00:29:33;;;;;;;7.25;5.38;;;17.00;63.60;;;;;;5059053;28;20392;-79
2021/09/23 00:31:59;;;;;;;7.82;6.00;;;16.90;63.60;;;;;;5094093;28;20086;-79
2021/09/23 00:34:25;;;;;;;7.68;5.47;;;16.90;63.60;;;;;;5058840;28;20024;-78
2021/09/23 00:36:51;;;;;;;7.45;6.05;;;16.90;63.60;;;;;;5058819;28;20028;-79
2021/09/23 00:39:21;;;;;;;7.45;5.43;;;16.90;63.70;;;;;;5075667;28;20080;-79
2021/09/23 00:41:47;;;;;;;6.85;5.50;;;16.90;63.70;;;;;;5059595;28;20032;-80
2021/09/23 00:44:21;;;;;;;8.15;5.93;;;16.80;63.70;;;;;;5075322;28;20032;-79
2021/09/23 00:46:48;;;;;;;7.22;5.35;;;16.80;63.70;;;;;;5058695;28;20039;-79
2021/09/23 00:49:17;;;;;;;7.50;5.30;;;16.80;63.70;;;;;;5059055;28;20107;-80
2021/09/23 00:51:44;;;;;;;6.82;5.18;;;16.80;63.70;;;;;;5059292;28;20024;-78
2021/09/23 00:54:11;;;;;;;7.68;5.75;;;16.80;63.80;;;;;;5076037;28;20032;-79
2021/09/23 00:56:38;;;;;;;7.15;5.60;;;16.70;63.80;;;;;;5042074;28;20028;-79
2021/09/23 00:59:04;;;;;;;7.28;5.47;;;16.70;63.80;;;;;;5075224;28;20032;-78
2021/09/23 01:01:31;;;;;;;8.02;6.20;;;16.70;63.80;;;;;;5059000;28;20181;-78
2021/09/23 01:04:00;;;;;;;7.75;5.60;;;16.60;63.80;;;;;;5075095;28;20038;-78
2021/09/23 01:06:27;;;;;;;8.30;6.28;;;16.60;63.80;;;;;;5058565;28;20040;-79
2021/09/23 01:08:58;;;;;;;7.60;5.80;;;16.60;63.90;;;;;;5058926;28;20553;-79
2021/09/23 01:11:27;;;;;;;7.35;6.20;;;16.60;63.90;;;;;;5079654;28;20094;-80
2021/09/23 01:13:54;;;;;;;7.82;5.80;;;16.60;63.90;;;;;;5062912;28;20047;-79
2021/09/23 01:16:37;;;;;;;7.35;5.55;;;16.50;63.90;;;;;;5065420;28;20027;-78
2021/09/23 01:19:24;;;;;;;7.55;6.00;;;16.50;63.90;;;;;;5065824;28;20060;-80
2021/09/23 01:21:51;;;;;;;7.22;5.55;;;16.50;63.90;;;;;;5078674;28;20055;-79
2021/09/23 01:24:17;;;;;;;7.75;5.95;;;16.50;64.00;;;;;;5079455;28;20449;-78
2021/09/23 01:26:48;;;;;;;7.63;5.95;;;16.50;64.00;;;;;;5061794;28;20036;-78
2021/09/23 01:29:23;;;;;;;8.27;5.85;;;16.40;64.10;;;;;;5079479;28;20020;-78
2021/09/23 01:31:54;;;;;;;7.78;5.75;;;16.40;64.00;;;;;;5062838;28;20020;-80
2021/09/23 01:34:21;;;;;;;8.35;6.18;;;16.40;64.10;;;;;;5062074;28;20031;-79
2021/09/23 01:36:47;;;;;;;8.18;5.82;;;16.40;64.10;;;;;;5061723;28;20464;-79
2021/09/23 01:39:18;;;;;;;6.93;5.50;;;16.40;64.20;;;;;;5078272;28;20024;-80
2021/09/23 01:41:44;;;;;;;7.40;5.60;;;16.40;64.20;;;;;;5078587;28;20028;-79
2021/09/23 01:44:10;;;;;;;8.05;5.80;;;16.30;64.20;;;;;;5061661;28;20464;-78
2021/09/23 01:46:36;;;;;;;8.55;6.32;;;16.30;64.20;;;;;;5061631;28;20047;-79
2021/09/23 01:49:31;;;;;;;8.00;5.65;;;16.30;64.20;;;;;;5055389;28;20488;-78
2021/09/23 01:51:57;;;;;;;7.28;5.57;;;16.30;64.20;;;;;;5045271;28;20123;-78
2021/09/23 01:54:23;;;;;;;7.55;5.50;;;16.30;64.30;;;;;;5028703;28;20077;-78
2021/09/23 01:56:55;;;;;;;9.20;6.00;;;16.20;64.20;;;;;;5045228;28;20032;-79
2021/09/23 01:59:23;;;;;;;8.73;6.25;;;16.20;64.30;;;;;;5078327;28;20055;-79
2021/09/23 02:01:51;;;;;;;9.30;7.13;;;16.20;64.30;;;;;;5077960;28;20024;-79
2021/09/23 02:04:17;;;;;;;7.85;5.93;;;16.20;64.30;;;;;;5061338;28;20069;-78
2021/09/23 02:06:45;;;;;;;8.30;6.47;;;16.20;64.40;;;;;;5078170;28;20060;-80
2021/09/23 02:09:11;;;;;;;8.20;6.18;;;16.20;64.40;;;;;;5061165;28;20056;-80
2021/09/23 02:11:37;;;;;;;8.52;6.47;;;16.10;64.30;;;;;;5061509;28;20039;-79
2021/09/23 02:14:04;;;;;;;8.68;6.15;;;16.10;64.40;;;;;;5060964;28;20411;-79
2021/09/23 02:16:30;;;;;;;7.97;6.15;;;16.10;64.40;;;;;;5061955;28;20028;-79
2021/09/23 02:19:02;;;;;;;7.80;6.22;;;16.10;64.40;;;;;;5061921;28;20028;-78
2021/09/23 02:21:28;;;;;;;8.00;6.05;;;16.10;64.40;;;;;;5077013;28;20064;-78
2021/09/23 02:23:54;;;;;;;8.80;6.88;;;16.10;64.40;;;;;;5045139;28;20456;-78
2021/09/23 02:26:20;;;;;;;8.80;6.80;;;16.10;64.40;;;;;;5061092;28;20036;-78
2021/09/23 02:28:46;;;;;;;9.20;6.57;;;16.00;64.40;;;;;;5061171;28;20024;-78
2021/09/23 02:31:12;;;;;;;9.25;7.05;;;16.10;64.50;;;;;;5060710;28;20028;-78
2021/09/23 02:33:38;;;;;;;8.23;6.82;;;16.00;64.50;;;;;;5078447;28;20359;-79
2021/09/23 02:36:06;;;;;;;8.63;6.47;;;16.00;64.50;;;;;;5060751;28;20031;-79
2021/09/23 02:38:32;;;;;;;7.38;5.70;;;16.00;64.50;;;;;;5061555;28;20035;-78
2021/09/23 02:40:58;;;;;;;10.27;6.45;;;15.90;64.50;;;;;;5060648;28;20384;-79
2021/09/23 02:43:24;;;;;;;8.55;6.45;;;15.90;64.40;;;;;;5060934;28;20024;-78
2021/09/23 02:45:50;;;;;;;9.48;7.13;;;15.90;64.50;;;;;;5060226;28;20020;-78
2021/09/23 02:48:16;;;;;;;10.02;6.75;;;15.90;64.50;;;;;;5060558;28;20058;-78
2021/09/23 02:50:41;;;;;;;9.15;7.18;;;15.90;64.50;;;;;;5060692;28;20063;-79
2021/09/23 02:53:07;;;;;;;9.13;6.60;;;15.90;64.50;;;;;;5060452;28;20040;-79
2021/09/23 02:55:33;;;;;;;8.75;6.75;;;15.80;64.50;;;;;;5043900;28;20428;-78
2021/09/23 02:57:59;;;;;;;9.30;6.82;;;15.90;64.50;;;;;;5060219;28;20028;-78
2021/09/23 03:00:25;;;;;;;8.60;6.68;;;15.90;64.60;;;;;;5027205;28;20085;-78
2021/09/23 03:02:51;;;;;;;9.35;6.97;;;15.80;64.50;;;;;;5076612;28;20046;-78
2021/09/23 03:05:17;;;;;;;9.70;7.07;;;15.80;64.60;;;;;;5060316;28;20046;-79
2021/09/23 03:07:42;;;;;;;8.98;6.85;;;15.80;64.60;;;;;;5060083;28;20055;-78
2021/09/23 03:10:09;;;;;;;8.93;7.15;;;15.80;64.60;;;;;;5076582;28;20484;-79
2021/09/23 03:12:34;;;;;;;9.52;6.40;;;15.70;64.60;;;;;;5059875;28;20123;-79
2021/09/23 03:15:02;;;;;;;10.32;7.28;;;15.70;64.60;;;;;;5076849;28;20023;-78
2021/09/23 03:17:27;;;;;;;9.15;6.80;;;15.70;64.60;;;;;;5043744;28;20028;-79
2021/09/23 03:19:53;;;;;;;9.77;7.18;;;15.70;64.60;;;;;;5060486;28;20024;-79
2021/09/23 03:22:20;;;;;;;9.57;6.93;;;15.70;64.60;;;;;;5059828;28;20115;-78
2021/09/23 03:24:48;;;;;;;10.32;7.38;;;15.70;64.70;;;;;;5059804;28;20035;-80
2021/09/23 03:27:15;;;;;;;9.95;7.45;;;15.70;64.70;;;;;;5060447;28;20483;-78
2021/09/23 03:29:41;;;;;;;9.45;6.60;;;15.70;64.70;;;;;;5076222;28;20043;-78
2021/09/23 03:32:07;;;;;;;9.55;7.20;;;15.70;64.70;;;;;;5059744;28;20034;-79
2021/09/23 03:34:32;;;;;;;10.68;7.35;;;15.60;64.70;;;;;;5076335;28;20372;-78
2021/09/23 03:36:58;;;;;;;10.02;7.30;;;15.70;64.80;;;;;;5076368;28;20103;-78
2021/09/23 03:39:24;;;;;;;9.13;6.75;;;15.60;64.80;;;;;;5076812;28;20525;-78
2021/09/23 03:41:50;;;;;;;9.88;7.32;;;15.60;64.70;;;;;;5059502;28;20032;-78
2021/09/23 03:44:16;;;;;;;9.30;6.70;;;15.60;64.80;;;;;;5076524;28;20078;-79
2021/09/23 03:46:42;;;;;;;9.15;6.80;;;15.60;64.80;;;;;;5059858;28;20468;-78
2021/09/23 03:49:09;;;;;;;10.93;7.38;;;15.60;64.90;;;;;;5075936;28;20024;-78
2021/09/23 03:51:35;;;;;;;9.30;7.18;;;15.50;64.80;;;;;;5059421;28;20043;-77
2021/09/23 03:54:02;;;;;;;8.75;6.72;;;15.50;64.80;;;;;;5059231;28;20119;-79
2021/09/23 03:56:28;;;;;;;8.88;6.80;;;15.50;64.90;;;;;;5059219;28;20024;-78
2021/09/23 03:58:54;;;;;;;9.10;6.57;;;15.50;64.80;;;;;;5075697;28;20029;-75
2021/09/23 04:01:20;;;;;;;11.52;7.80;;;15.50;64.90;;;;;;5026152;28;20027;-76
2021/09/23 04:03:46;;;;;;;9.80;7.28;;;15.50;64.90;;;;;;5059177;28;20486;-76
2021/09/23 04:06:12;;;;;;;10.80;7.43;;;15.50;64.90;;;;;;5059149;28;20032;-76
2021/09/23 04:08:37;;;;;;;10.48;7.43;;;15.50;64.90;;;;;;5058630;28;20105;-75
2021/09/23 04:11:12;;;;;;;9.60;7.18;;;15.40;64.90;;;;;;5059906;28;20040;-75
2021/09/23 04:13:38;;;;;;;10.68;7.55;;;15.40;64.90;;;;;;5059798;28;20201;-75
2021/09/23 04:16:05;;;;;;;9.95;7.05;;;15.50;64.90;;;;;;5075251;28;20024;-76
2021/09/23 04:18:31;;;;;;;9.88;7.68;;;15.40;64.90;;;;;;5075922;28;20115;-76
2021/09/23 04:20:57;;;;;;;9.10;7.28;;;15.40;64.90;;;;;;5058781;28;20181;-75
2021/09/23 04:23:23;;;;;;;10.20;7.80;;;15.40;65.00;;;;;;5058967;28;20035;-76
2021/09/23 04:25:49;;;;;;;10.70;7.70;;;15.40;64.90;;;;;;5026024;28;20024;-76
2021/09/23 04:28:15;;;;;;;11.32;8.00;;;15.40;65.00;;;;;;5042076;28;20081;-76
2021/09/23 04:30:41;;;;;;;9.63;7.10;;;15.40;65.00;;;;;;5058951;28;20032;-75
2021/09/23 04:33:07;;;;;;;10.63;7.15;;;15.40;65.00;;;;;;5058942;28;20040;-78
2021/09/23 04:35:33;;;;;;;9.45;6.78;;;15.30;65.00;;;;;;5058790;28;20024;-75
2021/09/23 04:37:59;;;;;;;10.45;7.40;;;15.30;65.00;;;;;;5059087;28;20081;-76
2021/09/23 04:40:24;;;;;;;11.00;7.50;;;15.30;65.00;;;;;;5058952;28;20028;-77
2021/09/23 04:42:51;;;;;;;10.13;7.03;;;15.30;65.10;;;;;;5058717;28;20483;-76
2021/09/23 04:45:17;;;;;;;10.23;7.38;;;15.30;65.10;;;;;;5061505;28;20032;-77
2021/09/23 04:47:43;;;;;;;10.27;6.80;;;15.30;65.10;;;;;;5062899;28;20032;-77
2021/09/23 04:50:11;;;;;;;10.32;7.75;;;15.30;65.10;;;;;;5062797;28;20396;-77
2021/09/23 04:52:37;;;;;;;11.30;7.18;;;15.30;65.20;;;;;;5078977;28;20133;-78
2021/09/23 04:55:05;;;;;;;9.45;7.40;;;15.30;65.20;;;;;;5062665;28;20032;-77
2021/09/23 04:57:33;;;;;;;10.07;7.63;;;15.20;65.10;;;;;;5097312;28;20040;-78
2021/09/23 05:00:03;;;;;;;9.93;7.15;;;15.20;65.10;;;;;;5079945;28;20070;-78
2021/09/23 05:02:31;;;;;;;10.18;7.65;;;15.20;65.20;;;;;;5046836;28;20471;-78
2021/09/23 05:04:58;;;;;;;9.10;6.57;;;15.20;65.20;;;;;;5078967;28;20028;-79
2021/09/23 05:07:24;;;;;;;10.63;7.55;;;15.20;65.20;;;;;;5062771;28;20031;-79
2021/09/23 05:09:51;;;;;;;9.35;7.18;;;15.20;65.20;;;;;;5062186;28;20423;-79
2021/09/23 05:12:17;;;;;;;9.50;7.20;;;15.20;65.20;;;;;;5062429;28;20036;-78
2021/09/23 05:14:43;;;;;;;8.85;6.90;;;15.20;65.20;;;;;;5062929;28;20031;-77
2021/09/23 05:17:08;;;;;;;9.43;7.03;;;15.20;65.30;;;;;;5062057;28;20032;-77
2021/09/23 05:19:34;;;;;;;9.13;6.90;;;15.10;65.30;;;;;;5078850;28;20043;-77
2021/09/23 05:22:00;;;;;;;9.48;6.93;;;15.20;65.30;;;;;;5062114;28;20051;-78
2021/09/23 05:24:26;;;;;;;9.52;7.22;;;15.10;65.20;;;;;;5096449;28;20028;-76
2021/09/23 05:26:51;;;;;;;9.15;6.85;;;15.10;65.30;;;;;;5062315;28;20111;-76
2021/09/23 05:29:17;;;;;;;9.85;7.63;;;15.20;65.30;;;;;;5061680;28;20032;-77
2021/09/23 05:31:43;;;;;;;9.35;7.32;;;15.10;65.30;;;;;;5078878;28;20052;-78
2021/09/23 05:34:08;;;;;;;10.27;7.30;;;15.10;65.30;;;;;;5078359;28;20353;-77
2021/09/23 05:36:34;;;;;;;9.45;6.75;;;15.10;65.30;;;;;;5062549;28;20123;-76
2021/09/23 05:39:03;;;;;;;10.23;7.82;;;15.10;65.30;;;;;;5045221;28;20457;-77
2021/09/23 05:41:30;;;;;;;10.32;7.57;;;15.10;65.40;;;;;;5078212;28;20032;-78
2021/09/23 05:43:56;;;;;;;10.05;7.70;;;15.10;65.40;;;;;;5096528;28;20016;-76
2021/09/23 05:46:22;;;;;;;9.20;7.25;;;15.10;65.50;;;;;;5078338;28;20451;-76
2021/09/23 05:48:47;;;;;;;9.65;6.93;;;15.10;65.40;;;;;;5078504;28;20349;-77
2021/09/23 05:51:15;;;;;;;10.57;7.93;;;15.10;65.50;;;;;;5061929;28;20425;-77
2021/09/23 05:53:40;;;;;;;9.70;7.22;;;15.00;65.40;;;;;;5077937;28;20487;-76
2021/09/23 05:56:06;;;;;;;10.15;7.70;;;15.10;65.50;;;;;;5077166;28;20036;-77
2021/09/23 05:58:32;;;;;;;10.93;7.72;;;15.10;65.50;;;;;;5077778;28;20021;-76
2021/09/23 06:00:58;;;;;;;9.98;7.20;;;15.00;65.50;;;;;;5061397;28;20066;-76
2021/09/23 06:03:23;;;;;;;9.52;7.57;;;15.00;65.50;;;;;;5095887;28;20395;-77
2021/09/23 06:05:49;;;;;;;9.20;7.22;;;15.00;65.60;;;;;;5096154;28;20081;-76
2021/09/23 06:08:15;;;;;;;10.10;7.50;;;15.00;65.60;;;;;;5061651;28;20039;-76
2021/09/23 06:10:41;;;;;;;9.25;7.00;;;15.00;65.60;;;;;;5078227;28;20123;-76
2021/09/23 06:13:07;;;;;;;11.20;7.75;;;15.00;65.60;;;;;;5096505;28;20056;-78
2021/09/23 06:15:34;;;;;;;9.82;7.00;;;15.00;65.60;;;;;;5095980;28;20036;-77
2021/09/23 06:17:59;;;;;;;10.27;7.75;;;15.00;65.70;;;;;;5077966;28;20479;-76
2021/09/23 06:20:25;;;;;;;9.13;7.00;;;15.00;65.70;;;;;;5061458;28;20032;-76
2021/09/23 06:22:55;;;;;;;8.82;6.75;;;15.00;65.70;;;;;;5061489;28;20031;-78
2021/09/23 06:25:21;;;;;;;9.80;7.53;;;15.00;65.70;;;;;;5077564;28;20043;-76
2021/09/23 06:27:47;;;;;;;9.55;7.45;;;15.00;65.70;;;;;;5095665;28;20031;-77
2021/09/23 06:30:14;;;;;;;8.60;6.80;;;15.00;65.80;;;;;;5060503;28;20123;-77
2021/09/23 06:32:40;;;;;;;8.70;7.07;;;15.00;65.80;;;;;;5095737;28;20024;-76
2021/09/23 06:35:07;;;;;;;10.00;7.47;;;15.00;65.80;;;;;;5060818;28;20118;-76
2021/09/23 06:37:35;;;;;;;8.73;6.93;;;15.00;65.80;;;;;;5044656;28;20539;-77
2021/09/23 06:40:01;;;;;;;8.82;6.97;;;15.00;65.80;;;;;;5095107;28;20116;-77
2021/09/23 06:42:26;;;;;;;9.40;7.00;;;15.00;65.80;;;;;;5078079;28;20364;-77
2021/09/23 06:44:52;;;;;;;9.32;7.32;;;15.00;65.80;;;;;;5077259;28;20068;-78
2021/09/23 06:47:18;;;;;;;9.15;7.00;;;15.00;65.90;;;;;;5077129;28;20028;-76
2021/09/23 06:49:44;;;;;;;9.07;7.28;;;15.00;65.90;;;;;;5060434;28;20040;-76
2021/09/23 06:52:10;;;;;;;10.93;7.57;;;15.00;65.90;;;;;;5077245;28;20384;-78
2021/09/23 06:54:35;;;;;;;9.38;6.95;;;15.00;65.90;;;;;;5095211;28;20396;-76
2021/09/23 06:57:01;;;;;;;11.38;8.00;;;15.00;65.90;;;;;;5094892;28;20024;-76
2021/09/23 06:59:27;;;;;;;9.75;7.60;;;15.00;65.90;;;;;;5060963;28;20032;-77
2021/09/23 07:01:54;;;;;;;9.63;7.43;;;15.10;66.00;;;;;;5060513;28;20036;-76
2021/09/23 07:04:39;;;;;;;9.32;6.70;;;15.10;66.00;;;;;;5080255;28;20105;-77
2021/09/23 07:07:10;;;;;;;8.65;6.47;;;15.10;66.00;;;;;;5094482;28;20044;-78
2021/09/23 07:09:40;;;;;;;8.93;6.80;;;15.10;66.00;;;;;;5077580;28;20499;-76
2021/09/23 07:12:13;;;;;;;9.90;7.40;;;15.10;66.10;;;;;;5061336;28;20039;-76
2021/09/23 07:14:41;;;;;;;8.82;6.78;;;15.10;66.10;;;;;;5077699;28;20109;-76
2021/09/23 07:17:06;;;;;;;9.85;7.15;;;15.10;66.10;;;;;;5059971;28;20044;-76
2021/09/23 07:19:32;;;;;;;8.88;6.60;;;15.10;66.10;;;;;;5076559;28;20028;-77
2021/09/23 07:21:58;;;;;;;9.77;7.32;;;15.10;66.10;;;;;;5076676;28;20111;-77
2021/09/23 07:24:25;;;;;;;10.23;7.63;;;15.10;66.20;;;;;;5094558;28;20020;-77
2021/09/23 07:26:51;;;;;;;10.55;7.20;;;15.20;66.20;;;;;;5076562;28;20034;-77
2021/09/23 07:29:17;;;;;;;9.63;7.03;;;15.10;66.10;;;;;;5059573;28;20032;-77
2021/09/23 07:31:44;;;;;;;8.75;6.57;;;15.20;66.30;;;;;;5076170;28;20040;-76
2021/09/23 07:34:11;;;;;;;10.38;7.25;;;15.20;66.30;;;;;;5077479;28;20035;-82
2021/09/23 07:36:37;;;;;;;9.27;7.40;;;15.20;66.30;;;;;;5076501;28;20448;-78
2021/09/23 07:39:07;;;;;;;9.15;7.32;;;15.20;66.30;;;;;;5076282;28;20056;-82
2021/09/23 07:41:38;;;;;;;9.45;7.05;;;15.20;66.40;;;;;;5059929;28;20135;-78
2021/09/23 07:44:09;;;;;;;9.30;7.32;;;15.20;66.40;;;;;;5076690;28;20035;-81
2021/09/23 07:46:36;;;;;;;9.38;7.20;;;15.20;66.40;;;;;;5076637;28;20056;-85
2021/09/23 07:49:03;;;;;;;8.10;6.18;;;15.30;66.40;;;;;;5060307;28;20023;-81
2021/09/23 07:51:29;;;;;;;9.77;7.10;;;15.30;66.50;;;;;;5060501;28;20020;-86
2021/09/23 07:53:55;;;;;;;8.98;7.15;;;15.30;66.40;;;;;;5077405;28;20464;-92
2021/09/23 07:56:21;;;;;;;9.23;6.90;;;15.40;66.50;;;;;;5060783;28;20154;-95
2021/09/23 07:58:47;;;;;;;9.30;7.07;;;15.40;66.50;;;;;;5060216;28;20602;-91
2021/09/23 08:01:12;;;;;;;9.50;7.10;;;15.40;66.50;;;;;;5043956;28;20059;-86
2021/09/23 08:03:38;;;;;;;9.48;7.10;;;15.40;66.50;;;;;;5061119;28;20468;-85
2021/09/23 08:06:04;;;;;;;9.18;7.10;;;15.40;66.50;;;;;;5060366;28;20035;-83
2021/09/23 08:08:30;;;;;;;9.38;7.20;;;15.40;66.50;;;;;;5060496;28;20039;-84
2021/09/23 08:10:57;;;;;;;8.82;6.70;;;15.50;66.60;;;;;;5060185;28;20036;-83
2021/09/23 08:13:24;;;;;;;9.88;7.10;;;15.50;66.60;;;;;;5043911;28;20525;-83
2021/09/23 08:15:50;;;;;;;9.50;6.97;;;15.60;66.70;;;;;;5076054;28;20017;-80
2021/09/23 08:18:34;;;;;;;10.68;7.13;;;15.60;66.70;;;;;;5064460;28;20123;-83
2021/09/23 08:21:10;;;;;;;9.60;6.93;;;15.60;66.70;;;;;;5061145;28;20031;-81
2021/09/23 08:23:36;;;;;;;10.73;7.43;;;15.60;66.70;;;;;;5075889;28;20119;-81
2021/09/23 08:26:03;;;;;;;9.65;7.18;;;15.70;66.80;;;;;;5058865;28;20096;-77
2021/09/23 08:28:31;;;;;;;9.45;7.28;;;15.70;66.80;;;;;;5058737;28;20090;-77
2021/09/23 08:30:58;;;;;;;8.88;7.07;;;15.70;66.80;;;;;;5058662;28;20131;-77
2021/09/23 08:33:24;;;;;;;8.68;6.88;;;15.80;66.90;;;;;;5058950;28;20036;-79
2021/09/23 08:35:50;;;;;;;8.70;6.97;;;15.80;66.90;;;;;;5058955;28;20051;-79
2021/09/23 08:38:19;;;;;;;9.20;7.03;;;15.80;66.80;;;;;;5059319;28;20032;-84
2021/09/23 08:40:49;;;;;;;8.90;6.90;;;15.80;66.80;;;;;;5060741;28;20032;-89
2021/09/23 08:43:17;;;;;;;8.75;6.53;;;15.90;66.90;;;;;;5044147;28;20249;-85
2021/09/23 08:45:44;;;;;;;8.65;6.95;;;15.90;66.80;;;;;;5076020;28;20138;-78
2021/09/23 08:48:10;;;;;;;7.97;6.45;;;15.90;66.80;;;;;;5075748;28;20127;-82
2021/09/23 08:50:37;;;;;;;9.23;6.88;;;16.00;66.80;;;;;;5059359;28;20456;-80
2021/09/23 08:53:05;;;;;;;8.70;6.75;;;16.10;66.80;;;;;;5060176;28;20062;-86
2021/09/23 08:55:33;;;;;;;8.18;6.53;;;16.10;66.80;;;;;;5060201;28;20028;-84
2021/09/23 08:58:06;;;;;;;8.70;6.68;;;16.10;66.70;;;;;;5060896;28;20057;-90
2021/09/23 09:00:37;;;;;;;9.05;6.50;;;16.20;66.70;;;;;;5060077;28;20380;-83
2021/09/23 09:03:06;;;;;;;8.18;6.68;;;16.20;66.70;;;;;;5059019;28;20031;-82
2021/09/23 09:06:12;;;;;;;8.55;6.65;;;16.20;66.60;;;;;;5066619;28;20411;-82
2021/09/23 09:08:56;;;;;;;7.63;6.18;;;16.30;66.60;;;;;;5094162;28;20537;-81
2021/09/23 09:11:32;;;;;;;8.73;6.82;;;16.30;66.40;;;;;;5060131;28;20036;-82
2021/09/23 09:13:58;;;;;;;8.73;6.70;;;16.40;66.50;;;;;;5059134;28;20047;-82
2021/09/23 09:16:27;;;;;;;8.48;7.18;;;16.40;66.40;;;;;;5058573;28;20028;-84
2021/09/23 09:18:55;;;;;;;8.10;6.07;;;16.50;66.50;;;;;;5058878;28;20028;-83
2021/09/23 09:21:23;;;;;;;8.20;6.68;;;16.50;66.50;;;;;;5075304;28;20032;-82
2021/09/23 09:24:01;;;;;;;8.23;6.32;;;16.60;66.50;;;;;;5075758;28;20032;-82
2021/09/23 09:26:32;;;;;;;8.80;6.40;;;16.60;66.40;;;;;;5059016;28;20032;-83
2021/09/23 09:29:00;;;;;;;8.35;6.53;;;16.70;66.50;;;;;;5075359;28;20020;-81
2021/09/23 09:31:27;;;;;;;9.05;7.03;;;16.70;66.50;;;;;;5077899;28;20085;-83
2021/09/23 09:33:56;;;;;;;8.48;6.35;;;16.80;66.50;;;;;;5062798;28;20036;-80
2021/09/23 09:36:33;;;;;;;8.57;6.30;;;16.80;66.60;;;;;;5078837;28;20364;-80
2021/09/23 09:39:10;;;;;;;8.25;6.05;;;16.80;66.70;;;;;;5062777;28;20043;-80
2021/09/23 09:41:38;;;;;;;8.23;6.65;;;16.90;66.60;;;;;;5062704;28;20054;-80
2021/09/23 09:44:08;;;;;;;7.80;6.05;;;16.90;66.60;;;;;;5078411;28;20062;-80
2021/09/23 09:46:47;;;;;;;8.88;6.22;;;17.00;66.70;;;;;;5061943;28;20077;-79
2021/09/23 09:49:13;;;;;;;9.57;6.35;;;17.00;66.70;;;;;;5078051;28;20114;-77
2021/09/23 09:51:49;;;;;;;8.20;5.82;;;17.10;66.70;;;;;;5061752;28;20444;-78
2021/09/23 09:54:17;;;;;;;8.52;6.50;;;17.10;66.80;;;;;;5078543;28;20490;-78
2021/09/23 09:56:46;;;;;;;7.28;5.57;;;17.10;66.80;;;;;;5062612;28;20055;-79
2021/09/23 09:59:14;;;;;;;8.45;6.40;;;17.20;66.80;;;;;;5061377;28;20027;-78
2021/09/23 10:01:56;;;;;;;8.60;6.68;;;17.20;66.80;;;;;;5062279;28;20032;-78
2021/09/23 10:04:23;;;;;;;7.57;6.07;;;17.30;66.90;;;;;;5079010;28;20035;-78
2021/09/23 10:06:55;;;;;;;7.82;6.07;;;17.30;66.80;;;;;;5045498;28;20020;-78
2021/09/23 10:09:21;;;;;;;8.48;6.07;;;17.40;66.90;;;;;;5061759;28;20492;-78
2021/09/23 10:11:49;;;;;;;7.10;5.70;;;17.40;67.00;;;;;;5077836;28;20047;-79
2021/09/23 10:14:18;;;;;;;7.53;6.03;;;17.50;67.10;;;;;;5061936;28;20039;-78
2021/09/23 10:16:46;;;;;;;7.45;6.03;;;17.50;67.10;;;;;;5061330;28;20048;-78
2021/09/23 10:19:12;;;;;;;9.38;5.93;;;17.60;67.10;;;;;;5061742;28;20569;-86
2021/09/23 10:21:38;;;;;;;7.68;5.85;;;17.70;67.10;;;;;;5077660;28;20074;-79
2021/09/23 10:24:06;;;;;;;7.25;5.75;;;17.70;67.20;;;;;;5078510;28;20042;-81
2021/09/23 10:26:35;;;;;;;7.25;5.65;;;17.80;67.20;;;;;;5060964;28;20534;-80
2021/09/23 10:29:02;;;;;;;7.28;5.43;;;17.90;67.20;;;;;;5061007;28;20115;-83
2021/09/23 10:31:36;;;;;;;8.05;5.55;;;18.00;67.10;;;;;;5060958;28;20127;-80
2021/09/23 10:34:04;;;;;;;8.10;5.28;;;18.00;67.10;;;;;;5061498;28;20051;-80
2021/09/23 10:36:35;;;;;;;6.80;5.28;;;18.10;67.10;;;;;;5061412;28;20035;-79
2021/09/23 10:39:05;;;;;;;7.13;5.22;;;18.10;67.10;;;;;;5044370;28;20028;-80
2021/09/23 10:41:36;;;;;;;7.22;5.47;;;18.20;67.10;;;;;;5061548;28;20024;-81
2021/09/23 10:44:07;;;;;;;6.55;5.00;;;18.30;67.10;;;;;;5045174;28;20028;-81
2021/09/23 10:46:35;;;;;;;7.93;5.40;;;18.30;67.10;;;;;;5061338;28;20032;-83
2021/09/23 10:49:04;;;;;;;6.70;4.72;;;18.40;67.20;;;;;;5044488;28;20119;-79
2021/09/23 10:51:33;;;;;;;6.40;5.03;;;18.40;67.20;;;;;;5060812;28;20028;-80
2021/09/23 10:54:08;;;;;;;6.70;4.88;;;18.50;67.30;;;;;;5061894;28;20043;-81
2021/09/23 10:56:35;;;;;;;6.88;5.22;;;18.50;67.20;;;;;;5060791;28;20119;-81
2021/09/23 10:59:04;;;;;;;6.43;4.88;;;18.60;67.20;;;;;;5077156;28;20059;-80
2021/09/23 11:01:36;;;;;;;7.07;5.30;;;18.60;67.20;;;;;;5060549;28;20127;-80
2021/09/23 11:04:03;;;;;;;5.57;4.20;;;18.70;67.20;;;;;;5059969;28;20028;-80
2021/09/23 11:06:41;;;;;;;7.25;5.20;;;18.70;67.10;;;;;;5060362;28;20066;-80
2021/09/23 11:09:20;;;;;;;6.63;4.75;;;18.70;67.20;;;;;;5076799;28;20046;-81
2021/09/23 11:11:55;;;;;;;5.80;4.10;;;18.80;67.10;;;;;;5061067;28;20027;-81
2021/09/23 11:14:23;;;;;;;6.05;4.75;;;18.90;67.10;;;;;;5094894;28;20115;-80
2021/09/23 11:17:07;;;;;;;5.65;4.35;;;18.90;67.10;;;;;;5060904;28;20027;-81
2021/09/23 11:19:34;;;;;;;6.78;4.28;;;18.90;67.00;;;;;;5061561;28;20036;-80
2021/09/23 11:22:01;;;;;;;5.35;4.22;;;18.90;66.90;;;;;;5060086;28;20142;-81
2021/09/23 11:24:27;;;;;;;5.13;3.90;;;19.00;67.00;;;;;;5060784;28;20487;-80
2021/09/23 11:26:55;;;;;;;5.45;4.00;;;19.00;67.00;;;;;;5059825;28;20083;-81
2021/09/23 11:29:23;;;;;;;5.18;3.95;;;19.10;66.90;;;;;;5060124;28;20114;-82
2021/09/23 11:31:54;;;;;;;5.00;3.63;;;19.10;67.50;;;;;;5059680;28;20032;-80
2021/09/23 11:34:38;;;;;;;4.78;3.63;;;19.10;66.90;;;;;;5060105;28;20494;-80
2021/09/23 11:37:10;;;;;;;5.90;4.28;;;19.20;66.90;;;;;;5076544;28;20065;-81
2021/09/23 11:39:49;;;;;;;4.35;3.08;;;19.20;66.80;;;;;;5061718;28;20073;-80
2021/09/23 11:42:20;;;;;;;4.88;3.50;;;19.30;66.70;;;;;;5076399;28;20109;-81
2021/09/23 11:44:50;;;;;;;4.72;3.65;;;19.30;66.70;;;;;;5059933;28;20031;-81
2021/09/23 11:47:18;;;;;;;5.28;3.42;;;19.30;66.60;;;;;;5059612;28;20035;-81
2021/09/23 11:49:49;;;;;;;5.03;3.40;;;19.30;66.60;;;;;;5042949;28;20142;-80
2021/09/23 11:52:16;;;;;;;4.55;3.25;;;19.40;66.60;;;;;;5044134;28;20040;-81
2021/09/23 11:54:43;;;;;;;6.13;3.35;;;19.40;66.50;;;;;;5075420;28;20028;-81
2021/09/23 11:57:23;;;;;;;5.13;3.28;;;19.40;66.50;;;;;;5076084;28;20032;-82
2021/09/23 12:00:00;;;;;;;4.68;3.20;;;19.50;66.60;;;;;;5059834;28;20131;-81
2021/09/23 12:02:27;;;;;;;4.13;2.70;;;19.50;67.10;;;;;;5059843;28;20031;-80
2021/09/23 12:04:59;;;;;;;3.83;2.78;;;19.50;66.30;;;;;;5042794;28;20514;-81
2021/09/23 12:07:27;;;;;;;4.50;3.00;;;19.50;66.30;;;;;;5059764;28;20086;-82
2021/09/23 12:10:04;;;;;;;4.40;2.80;;;19.60;66.30;;;;;;5058964;28;20052;-81
2021/09/23 12:12:32;;;;;;;4.38;2.97;;;19.60;66.40;;;;;;5059809;28;20058;-81
2021/09/23 12:14:59;;;;;;;3.65;2.65;;;19.60;66.30;;;;;;5059313;28;20031;-81
2021/09/23 12:17:26;;;;;;;3.78;2.60;;;19.60;66.20;;;;;;5076560;28;20020;-81
2021/09/23 12:19:55;;;;;;;4.25;2.80;;;19.70;66.20;;;;;;5060162;28;20039;-82
2021/09/23 12:22:33;;;;;;;2.95;2.20;;;19.70;66.10;;;;;;5059256;28;20028;-81
2021/09/23 12:25:00;;;;;;;4.15;2.78;;;19.70;66.20;;;;;;5060948;28;20039;-81
2021/09/23 12:27:47;;;;;;;;;;;;;;;;;;;;;
2021/09/23 12:30:25;;;;;;;2.83;2.10;;;19.80;66.20;;;;;;5061991;28;20051;-82
2021/09/23 12:32:56;;;;;;;3.20;2.25;;;19.90;66.30;;;;;;5076398;28;20034;-81
2021/09/23 12:35:22;;;;;;;3.00;2.45;;;19.90;66.10;;;;;;5043256;28;20032;-83
2021/09/23 12:37:52;;;;;;;3.33;2.60;;;19.90;66.00;;;;;;5059480;28;20025;-81
2021/09/23 12:40:36;;;;;;;2.97;2.20;;;20.00;66.10;;;;;;5050342;28;20120;-80
2021/09/23 12:43:14;;;;;;;3.90;2.40;;;20.00;65.90;;;;;;5025881;28;20126;-83
2021/09/23 12:45:40;;;;;;;3.47;2.20;;;20.00;66.00;;;;;;5059236;28;20024;-83
2021/09/23 12:48:15;;;;;;;2.47;2.10;;;20.10;65.80;;;;;;5075398;28;20143;-80
2021/09/23 12:50:46;;;;;;;3.60;2.20;;;20.10;65.80;;;;;;5075836;28;20040;-81
2021/09/23 12:53:18;;;;;;;3.25;2.20;;;20.20;65.70;;;;;;5059589;28;20074;-82